Time;durP1;ratioP1;P1;durP2;ratioP2;P2;SDS_P1;SDS_P2;PMS_P1;PMS_P2;Temp;Humidity;BMP_temperature;BMP_pressure;BME280_temperature;BME280_humidity;BME280_pressure;Samples;Min_cycle;Max_cycle;Signal;HPM_P1;HPM_P2
2023/05/13 00:02:01;;;;;;;;;;;14.50;99.90;;;;;;5092991;28;20063;-76
2023/05/13 00:11:27;;;;;;;6.30;1.52;;;14.50;99.90;;;;;;5029740;28;20034;-78
2023/05/13 00:14:26;;;;;;;6.07;2.33;;;14.40;99.90;;;;;;5085319;28;20405;-76
2023/05/13 00:17:14;;;;;;;13.13;3.22;;;14.40;99.90;;;;;;5029447;28;20081;-76
2023/05/13 00:19:49;;;;;;;9.23;1.67;;;14.30;99.90;;;;;;5017972;28;20368;-79
2023/05/13 00:22:15;;;;;;;6.47;1.17;;;14.30;99.90;;;;;;5030080;28;20045;-76
2023/05/13 00:31:38;;;;;;;5.15;1.13;;;14.30;99.90;;;;;;5073481;28;20040;-78
2023/05/13 00:34:04;;;;;;;7.95;1.10;;;14.30;99.90;;;;;;5073669;28;20406;-77
2023/05/13 00:36:30;;;;;;;7.03;1.00;;;14.30;99.90;;;;;;5089265;28;20086;-77
2023/05/13 00:38:56;;;;;;;4.53;1.30;;;14.20;99.90;;;;;;5096170;28;20028;-77
2023/05/13 00:41:22;;;;;;;4.75;1.27;;;14.30;99.90;;;;;;5094669;28;20051;-77
2023/05/13 00:43:48;;;;;;;7.20;1.38;;;14.30;99.90;;;;;;5094547;28;20048;-77
2023/05/13 00:46:15;;;;;;;4.80;1.33;;;14.20;99.90;;;;;;5094164;28;20131;-77
2023/05/13 00:48:41;;;;;;;4.93;1.38;;;14.20;99.90;;;;;;5095698;28;20032;-77
2023/05/13 00:51:07;;;;;;;4.43;1.25;;;14.20;99.90;;;;;;5095476;28;20143;-77
2023/05/13 00:53:33;;;;;;;2.95;0.90;;;14.20;99.90;;;;;;5095901;28;20485;-78
2023/05/13 00:55:59;;;;;;;2.92;0.88;;;14.20;99.90;;;;;;5095244;28;20263;-77
2023/05/13 00:58:25;;;;;;;4.75;1.30;;;14.20;99.90;;;;;;5093652;28;20036;-77
2023/05/13 01:01:21;;;;;;;5.68;1.20;;;14.20;99.90;;;;;;5091091;28;20032;-78
2023/05/13 01:03:59;;;;;;;1.70;0.88;;;14.20;99.90;;;;;;5091359;28;20520;-78
2023/05/13 01:07:00;;;;;;;3.70;1.00;;;14.20;99.90;;;;;;5094927;28;20028;-76
2023/05/13 01:09:38;;;;;;;2.33;1.17;;;14.10;99.90;;;;;;5033176;28;20046;-81
2023/05/13 01:12:11;;;;;;;3.33;1.10;;;14.20;99.90;;;;;;5085020;28;20036;-80
2023/05/13 01:14:48;;;;;;;2.97;1.08;;;14.20;99.90;;;;;;5095301;28;20029;-82
2023/05/13 01:17:34;;;;;;;2.42;0.80;;;14.10;99.90;;;;;;5094091;28;20192;-81
2023/05/13 01:20:03;;;;;;;2.47;1.00;;;14.20;99.90;;;;;;5093289;28;20077;-82
2023/05/13 01:22:29;;;;;;;3.10;1.25;;;14.10;99.90;;;;;;5095110;28;20031;-82
2023/05/13 01:24:55;;;;;;;4.55;1.02;;;14.10;99.90;;;;;;5094007;28;20028;-82
2023/05/13 01:27:21;;;;;;;4.88;1.15;;;14.10;99.90;;;;;;5094894;28;20151;-81
2023/05/13 01:29:49;;;;;;;1.90;1.00;;;14.10;99.90;;;;;;5094617;28;20048;-83
2023/05/13 01:32:15;;;;;;;2.47;1.17;;;14.10;99.90;;;;;;5096064;28;20432;-76
2023/05/13 01:34:42;;;;;;;3.20;0.95;;;14.10;99.90;;;;;;5094292;28;20060;-77
2023/05/13 01:37:08;;;;;;;3.30;1.00;;;14.10;99.90;;;;;;5094909;28;20371;-76
2023/05/13 01:39:36;;;;;;;4.55;0.80;;;14.10;99.90;;;;;;5095481;28;20059;-76
2023/05/13 01:42:06;;;;;;;5.22;0.80;;;14.10;99.90;;;;;;5094780;28;20101;-76
2023/05/13 01:52:19;;;;;;;2.38;0.75;;;14.20;99.90;;;;;;5016241;28;20222;-78
2023/05/13 01:59:16;;;;;;;6.97;0.88;;;14.20;99.90;;;;;;4915657;29;20126;-77
2023/05/13 02:05:32;;;;;;;2.75;1.08;;;14.10;99.90;;;;;;4859572;29;20066;-77
2023/05/13 02:08:40;;;;;;;6.22;1.35;;;14.10;99.90;;;;;;4848123;29;20044;-78
2023/05/13 02:12:01;;;;;;;2.17;0.98;;;14.10;99.90;;;;;;4901365;29;20047;-77
2023/05/13 02:14:27;;;;;;;8.65;0.90;;;14.10;99.90;;;;;;4878063;29;20041;-77
2023/05/13 02:16:53;;;;;;;3.38;1.00;;;14.00;99.90;;;;;;4989337;28;20482;-78
2023/05/13 02:19:19;;;;;;;2.08;1.10;;;14.00;99.90;;;;;;5067874;28;20036;-78
2023/05/13 02:21:45;;;;;;;4.05;0.90;;;13.90;99.90;;;;;;5093977;28;20028;-79
2023/05/13 02:24:12;;;;;;;3.40;0.95;;;13.90;99.90;;;;;;5093985;28;20078;-79
2023/05/13 02:26:40;;;;;;;3.53;1.20;;;13.90;99.90;;;;;;5093707;28;20069;-78
2023/05/13 02:29:06;;;;;;;3.60;1.15;;;14.00;99.90;;;;;;5092554;28;20083;-79
2023/05/13 02:31:32;;;;;;;3.97;1.20;;;13.90;99.90;;;;;;5093701;28;20070;-79
2023/05/13 02:33:58;;;;;;;1.65;0.85;;;14.00;99.90;;;;;;5093534;28;20024;-78
2023/05/13 02:36:23;;;;;;;3.00;0.80;;;13.90;99.90;;;;;;5093688;28;20145;-80
2023/05/13 02:38:49;;;;;;;3.47;1.10;;;13.90;99.90;;;;;;5093375;28;20039;-78
2023/05/13 02:41:15;;;;;;;4.45;1.33;;;14.00;99.90;;;;;;5093391;28;20032;-79
2023/05/13 02:43:41;;;;;;;4.68;1.13;;;14.00;99.90;;;;;;5093822;28;20036;-79
2023/05/13 02:46:07;;;;;;;4.60;1.15;;;13.90;99.90;;;;;;5093469;28;20032;-78
2023/05/13 02:48:32;;;;;;;3.80;1.25;;;13.90;99.90;;;;;;5092087;28;20085;-78
2023/05/13 02:50:59;;;;;;;3.03;1.30;;;13.90;99.90;;;;;;5093364;28;20117;-79
2023/05/13 02:53:25;;;;;;;3.22;1.30;;;13.90;99.90;;;;;;5092397;28;20478;-78
2023/05/13 02:55:51;;;;;;;6.60;1.77;;;13.90;99.90;;;;;;5093058;28;20114;-78
2023/05/13 02:58:17;;;;;;;2.50;1.25;;;13.90;99.90;;;;;;5093567;28;20115;-78
2023/05/13 03:00:43;;;;;;;1.75;1.10;;;13.90;99.90;;;;;;5093410;28;20028;-78
2023/05/13 03:03:08;;;;;;;4.53;1.25;;;14.00;99.90;;;;;;5093387;28;20101;-77
2023/05/13 03:05:34;;;;;;;4.40;1.15;;;14.00;99.90;;;;;;5092929;28;20039;-78
2023/05/13 03:08:00;;;;;;;5.15;1.05;;;13.90;99.90;;;;;;5092827;28;20036;-78
2023/05/13 03:10:26;;;;;;;3.00;1.00;;;14.00;99.90;;;;;;5093065;28;20040;-77
2023/05/13 03:12:52;;;;;;;4.28;1.10;;;14.00;99.90;;;;;;5093171;28;20119;-77
2023/05/13 03:15:17;;;;;;;2.45;0.85;;;13.90;99.90;;;;;;5093058;28;20036;-77
2023/05/13 03:17:43;;;;;;;6.90;1.10;;;13.90;99.90;;;;;;5092725;28;20130;-78
2023/05/13 03:20:10;;;;;;;1.95;0.90;;;13.90;99.90;;;;;;5093890;28;20077;-77
2023/05/13 03:22:39;;;;;;;2.30;0.90;;;13.90;99.90;;;;;;5093451;28;20044;-77
2023/05/13 03:25:06;;;;;;;5.18;0.90;;;13.90;99.90;;;;;;5093419;28;20035;-77
2023/05/13 03:27:32;;;;;;;2.08;0.90;;;13.90;99.90;;;;;;5093501;28;20037;-77
2023/05/13 03:54:20;;;;;;;3.10;1.00;;;13.80;99.90;;;;;;4853456;29;20077;-78
2023/05/13 03:57:15;;;;;;;1.60;0.90;;;13.80;99.90;;;;;;4821336;29;20058;-78
2023/05/13 03:59:59;;;;;;;2.38;0.88;;;13.80;99.90;;;;;;4821021;29;20183;-78
2023/05/13 04:02:25;;;;;;;2.00;1.02;;;13.80;99.90;;;;;;4907856;28;20040;-78
2023/05/13 04:04:50;;;;;;;3.42;1.23;;;13.80;99.90;;;;;;5002757;28;20069;-77
2023/05/13 04:07:16;;;;;;;1.70;0.90;;;13.80;99.90;;;;;;5053356;28;20074;-77
2023/05/13 04:09:42;;;;;;;3.10;1.00;;;13.80;99.90;;;;;;5096512;28;20489;-78
2023/05/13 04:12:08;;;;;;;2.15;1.10;;;13.80;99.90;;;;;;5096217;28;20067;-78
2023/05/13 04:14:34;;;;;;;1.23;0.80;;;13.80;99.90;;;;;;5096431;28;20032;-79
2023/05/13 04:16:59;;;;;;;4.25;1.05;;;13.80;99.90;;;;;;5096539;28;20067;-78
2023/05/13 04:19:25;;;;;;;2.72;1.00;;;13.80;99.90;;;;;;5096346;28;20032;-79
2023/05/13 04:21:51;;;;;;;7.15;1.05;;;13.80;99.90;;;;;;5096418;28;20040;-79
2023/05/13 04:24:17;;;;;;;2.25;0.70;;;13.80;99.90;;;;;;5096375;28;20077;-79
2023/05/13 04:26:43;;;;;;;2.60;1.05;;;13.80;99.90;;;;;;5096352;28;20047;-78
2023/05/13 04:29:08;;;;;;;3.42;1.00;;;13.80;99.90;;;;;;5095935;28;20074;-78
2023/05/13 04:31:34;;;;;;;3.38;1.80;;;13.80;99.90;;;;;;5095872;28;20028;-78
2023/05/13 04:34:00;;;;;;;3.08;1.20;;;13.80;99.90;;;;;;5095941;28;20029;-79
2023/05/13 04:36:26;;;;;;;3.03;0.98;;;13.80;99.90;;;;;;5096106;28;20032;-77
2023/05/13 04:38:51;;;;;;;2.85;1.10;;;13.80;99.90;;;;;;5095945;28;20044;-77
2023/05/13 04:41:17;;;;;;;4.88;0.95;;;13.80;99.90;;;;;;5096814;28;20032;-86
2023/05/13 04:43:43;;;;;;;5.25;1.17;;;13.80;99.90;;;;;;5096585;28;20086;-89
2023/05/13 04:46:09;;;;;;;3.03;1.00;;;13.80;99.90;;;;;;5097266;28;20047;-89
2023/05/13 04:48:34;;;;;;;1.55;0.90;;;13.90;99.90;;;;;;5096483;28;20033;-88
2023/05/13 04:51:00;;;;;;;1.77;0.93;;;13.90;99.90;;;;;;5096315;28;20101;-88
2023/05/13 04:53:26;;;;;;;2.35;1.10;;;13.90;99.90;;;;;;5095108;28;20051;-88
2023/05/13 04:55:59;;;;;;;2.08;1.00;;;13.90;99.90;;;;;;5096123;28;20093;-88
2023/05/13 04:58:26;;;;;;;4.97;1.38;;;13.90;99.90;;;;;;5096208;28;20036;-87
2023/05/13 05:00:52;;;;;;;2.88;1.17;;;13.90;99.90;;;;;;5095864;28;20028;-86
2023/05/13 05:03:18;;;;;;;1.88;1.20;;;13.90;99.90;;;;;;5096934;28;20035;-78
2023/05/13 05:05:44;;;;;;;2.55;1.25;;;13.90;99.90;;;;;;5096145;28;20474;-78
2023/05/13 05:08:10;;;;;;;5.25;1.05;;;13.90;99.90;;;;;;5096026;28;20036;-77
2023/05/13 05:10:36;;;;;;;2.67;1.30;;;13.90;99.90;;;;;;5095952;28;20103;-78
2023/05/13 05:13:05;;;;;;;2.85;1.10;;;14.00;99.90;;;;;;5095981;28;20110;-78
2023/05/13 05:22:44;;;;;;;2.92;1.25;;;14.00;99.90;;;;;;5033353;28;20009;-78
2023/05/13 05:28:44;;;;;;;1.40;1.10;;;14.20;99.90;;;;;;4952296;29;20052;-78
2023/05/13 05:35:10;;;;;;;4.18;1.23;;;14.30;99.90;;;;;;4841584;29;20038;-77
2023/05/13 05:37:36;;;;;;;2.50;1.48;;;14.40;99.90;;;;;;4786979;29;20055;-78
2023/05/13 05:40:40;;;;;;;1.70;0.95;;;14.40;99.90;;;;;;4826910;29;20096;-78
2023/05/13 05:43:09;;;;;;;4.82;1.30;;;14.40;99.90;;;;;;4804623;29;20464;-78
2023/05/13 05:45:39;;;;;;;4.13;1.20;;;14.40;99.90;;;;;;4805135;29;20043;-77
2023/05/13 05:48:06;;;;;;;1.60;1.33;;;14.40;99.90;;;;;;4906983;28;20060;-78
2023/05/13 05:50:33;;;;;;;2.13;0.90;;;14.40;99.90;;;;;;5054433;28;20037;-77
2023/05/13 05:52:59;;;;;;;2.83;0.98;;;14.40;99.90;;;;;;5053901;28;20121;-77
2023/05/13 05:55:27;;;;;;;3.65;0.90;;;14.50;99.90;;;;;;5036334;28;20402;-77
2023/05/13 05:57:56;;;;;;;4.35;1.10;;;14.50;99.90;;;;;;5053970;28;20067;-78
2023/05/13 06:00:22;;;;;;;6.28;1.17;;;14.50;99.90;;;;;;5053800;28;20112;-77
2023/05/13 06:02:48;;;;;;;4.22;1.13;;;14.50;99.90;;;;;;5053921;28;20029;-77
2023/05/13 06:05:14;;;;;;;1.60;0.90;;;14.50;99.90;;;;;;5053750;28;20037;-78
2023/05/13 06:07:40;;;;;;;15.27;1.50;;;14.60;99.90;;;;;;5054200;28;20040;-79
2023/05/13 06:10:06;;;;;;;4.97;1.45;;;14.50;99.90;;;;;;5054027;28;20100;-77
2023/05/13 06:12:32;;;;;;;3.70;1.42;;;14.50;99.90;;;;;;5053660;28;20033;-79
2023/05/13 06:14:59;;;;;;;3.20;1.60;;;14.60;99.90;;;;;;5053616;28;20082;-78
2023/05/13 06:17:25;;;;;;;4.00;1.65;;;14.60;99.90;;;;;;5053747;28;20559;-77
2023/05/13 06:19:51;;;;;;;5.60;2.25;;;14.50;99.90;;;;;;5053658;28;20033;-78
2023/05/13 06:22:16;;;;;;;3.17;1.70;;;14.50;99.90;;;;;;5053740;28;20043;-82
2023/05/13 06:24:43;;;;;;;7.03;1.90;;;14.50;99.90;;;;;;5053141;28;20104;-77
2023/05/13 06:27:12;;;;;;;5.18;1.52;;;14.50;99.90;;;;;;5051291;28;20040;-77
2023/05/13 06:29:38;;;;;;;4.47;1.50;;;14.50;99.90;;;;;;5072589;28;20127;-79
2023/05/13 06:32:04;;;;;;;1.85;1.30;;;14.50;99.90;;;;;;5093364;28;20123;-79
2023/05/13 06:34:30;;;;;;;3.72;1.92;;;14.50;99.90;;;;;;5093027;28;20067;-78
2023/05/13 06:36:56;;;;;;;3.55;1.40;;;14.50;99.90;;;;;;5093259;28;20043;-77
2023/05/13 06:39:22;;;;;;;2.42;1.35;;;14.50;99.90;;;;;;5092995;28;20046;-80
2023/05/13 06:41:48;;;;;;;2.00;1.27;;;14.60;99.90;;;;;;5093276;28;20097;-77
2023/05/13 06:44:14;;;;;;;2.95;1.50;;;14.60;99.90;;;;;;5093119;28;20036;-77
2023/05/13 06:46:40;;;;;;;2.40;1.30;;;14.60;99.90;;;;;;5091583;28;20450;-82
2023/05/13 06:49:06;;;;;;;5.00;1.40;;;14.60;99.90;;;;;;5082208;28;20108;-78
2023/05/13 06:51:33;;;;;;;7.13;1.38;;;14.70;99.90;;;;;;5084070;28;20455;-80
2023/05/13 06:54:00;;;;;;;2.58;1.33;;;14.70;99.90;;;;;;5083049;28;20060;-77
2023/05/13 06:56:26;;;;;;;7.80;1.95;;;14.70;99.90;;;;;;5083014;28;20056;-77
2023/05/13 06:58:52;;;;;;;5.95;2.10;;;14.70;99.90;;;;;;5080339;28;20494;-78
2023/05/13 07:01:18;;;;;;;3.28;1.95;;;14.70;99.90;;;;;;5083273;28;20119;-78
2023/05/13 07:03:45;;;;;;;3.83;1.92;;;14.70;99.90;;;;;;5089628;28;20050;-78
2023/05/13 07:07:01;;;;;;;4.32;1.98;;;14.80;99.90;;;;;;5079641;28;20036;-77
2023/05/13 07:13:54;;;;;;;4.30;2.33;;;14.70;99.90;;;;;;4914020;29;20039;-77
2023/05/13 07:17:17;;;;;;;5.97;2.38;;;14.70;99.90;;;;;;4862277;29;20053;-75
2023/05/13 07:23:04;;;;;;;8.25;2.50;;;14.70;99.90;;;;;;4991325;28;20531;-76
2023/05/13 07:28:32;;;;;;;5.43;2.50;;;14.80;99.90;;;;;;5227976;22;20127;-74
2023/05/13 07:34:51;;;;;;;3.00;1.95;;;14.80;99.90;;;;;;4950651;28;20050;-75
2023/05/13 07:37:17;;;;;;;7.22;2.30;;;14.90;99.90;;;;;;4953244;28;20054;-75
2023/05/13 07:39:43;;;;;;;5.63;2.47;;;14.90;99.90;;;;;;5042623;28;20029;-74
2023/05/13 07:42:09;;;;;;;5.05;2.00;;;15.00;99.90;;;;;;5055902;28;20398;-75
2023/05/13 07:44:35;;;;;;;4.97;1.80;;;15.00;99.90;;;;;;5058808;28;20035;-74
2023/05/13 07:47:00;;;;;;;4.00;2.10;;;15.10;99.90;;;;;;5058130;28;20064;-74
2023/05/13 07:49:26;;;;;;;2.85;1.95;;;15.00;99.90;;;;;;5058146;28;20029;-74
2023/05/13 07:51:52;;;;;;;3.90;2.45;;;15.10;99.90;;;;;;5058318;28;20069;-75
2023/05/13 07:54:18;;;;;;;7.10;3.50;;;15.10;99.90;;;;;;5039134;28;20033;-75
2023/05/13 07:56:45;;;;;;;5.45;2.03;;;15.20;99.90;;;;;;5058787;28;20128;-74
2023/05/13 07:59:11;;;;;;;7.65;3.28;;;15.20;99.90;;;;;;5057142;28;20398;-75
2023/05/13 08:01:37;;;;;;;10.88;7.25;;;15.20;99.90;;;;;;5058251;28;20033;-79
2023/05/13 08:04:03;;;;;;;6.78;4.15;;;15.20;99.90;;;;;;5057892;28;20060;-79
2023/05/13 08:06:28;;;;;;;8.18;2.42;;;15.20;99.90;;;;;;5058547;28;20040;-79
2023/05/13 08:08:54;;;;;;;4.53;2.00;;;15.30;99.90;;;;;;5040287;28;20037;-78
2023/05/13 08:11:20;;;;;;;6.90;1.73;;;15.20;99.90;;;;;;5058916;28;20055;-78
2023/05/13 08:13:46;;;;;;;1.85;1.10;;;15.20;99.90;;;;;;5058645;28;20367;-79
2023/05/13 08:16:12;;;;;;;2.45;1.10;;;15.20;99.90;;;;;;5041021;28;20048;-80
2023/05/13 08:18:37;;;;;;;1.73;1.00;;;15.20;99.90;;;;;;5056928;28;20091;-74
2023/05/13 08:21:03;;;;;;;2.47;0.90;;;15.30;99.90;;;;;;5056046;28;20127;-76
2023/05/13 08:23:29;;;;;;;2.60;1.38;;;15.20;99.90;;;;;;5056248;28;20045;-77
2023/05/13 08:25:55;;;;;;;2.42;1.30;;;15.20;99.90;;;;;;5055582;28;20041;-79
2023/05/13 08:28:21;;;;;;;6.97;1.40;;;15.20;99.90;;;;;;5056742;28;20060;-88
2023/05/13 08:30:46;;;;;;;2.05;1.10;;;15.30;99.90;;;;;;5058804;28;20029;-81
2023/05/13 08:33:12;;;;;;;2.03;1.17;;;15.30;99.90;;;;;;5058010;28;20094;-81
2023/05/13 08:35:38;;;;;;;2.63;1.45;;;15.30;99.90;;;;;;5057953;28;20033;-91
2023/05/13 08:38:04;;;;;;;5.22;1.48;;;15.30;99.90;;;;;;5056954;28;20049;-86
2023/05/13 08:40:32;;;;;;;2.88;1.30;;;15.30;99.90;;;;;;5058440;28;20029;-82
2023/05/13 08:43:02;;;;;;;2.30;1.30;;;15.30;99.90;;;;;;5058070;28;20383;-80
2023/05/13 08:45:30;;;;;;;2.63;1.17;;;15.30;99.90;;;;;;5057935;28;20108;-81
2023/05/13 08:48:04;;;;;;;5.70;1.40;;;15.30;99.90;;;;;;5052699;28;20054;-74
2023/05/13 08:50:33;;;;;;;5.93;1.42;;;15.30;99.90;;;;;;5036577;28;20399;-74
2023/05/13 08:53:01;;;;;;;3.30;1.85;;;15.30;99.90;;;;;;5035954;28;20391;-74
2023/05/13 08:59:18;;;;;;;;;;;;;;;;;;;;;
2023/05/13 09:02:02;;;;;;;3.53;1.15;;;15.30;99.90;;;;;;4970546;28;20063;-81
2023/05/13 09:18:00;;;;;;;3.85;1.10;;;15.30;99.90;;;;;;4861475;29;20060;-88
2023/05/13 09:20:40;;;;;;;3.33;1.45;;;15.40;99.90;;;;;;4808903;29;20551;-87
2023/05/13 09:23:08;;;;;;;4.15;1.40;;;15.40;99.90;;;;;;5013030;28;20103;-86
2023/05/13 09:25:37;;;;;;;3.70;1.40;;;15.40;99.90;;;;;;5035594;28;20463;-83
2023/05/13 09:28:05;;;;;;;3.05;1.80;;;15.40;99.90;;;;;;5035072;28;20442;-83
2023/05/13 09:30:41;;;;;;;3.35;1.40;;;15.40;99.90;;;;;;5035281;28;20425;-82
2023/05/13 09:33:15;;;;;;;2.53;1.27;;;15.30;99.90;;;;;;5035288;28;20391;-83
2023/05/13 09:35:43;;;;;;;2.92;1.92;;;15.30;99.90;;;;;;5035040;28;20529;-79
2023/05/13 09:38:13;;;;;;;9.82;6.00;;;15.40;99.90;;;;;;5034623;28;20406;-81
2023/05/13 09:40:39;;;;;;;23.67;13.93;;;15.40;99.90;;;;;;5031774;28;20132;-79
2023/05/13 09:43:08;;;;;;;30.88;18.50;;;15.40;99.90;;;;;;5030528;28;20037;-81
2023/05/13 09:45:34;;;;;;;12.30;8.35;;;15.40;99.90;;;;;;5032373;28;20080;-78
2023/05/13 09:48:01;;;;;;;3.70;2.10;;;15.40;99.90;;;;;;5033832;28;20034;-78
2023/05/13 09:50:27;;;;;;;5.85;1.77;;;15.40;99.90;;;;;;5034181;28;20498;-79
2023/05/13 09:52:53;;;;;;;3.60;2.13;;;15.50;99.90;;;;;;5033798;28;20041;-76
2023/05/13 09:55:19;;;;;;;5.97;2.47;;;15.50;99.90;;;;;;5033813;28;20072;-82
2023/05/13 09:57:46;;;;;;;3.22;1.98;;;15.50;99.90;;;;;;5034140;28;20049;-80
2023/05/13 10:00:12;;;;;;;3.97;2.17;;;15.50;99.90;;;;;;5033996;28;20112;-81
2023/05/13 10:02:39;;;;;;;6.30;1.88;;;15.50;99.90;;;;;;5032394;28;20490;-80
2023/05/13 10:05:07;;;;;;;4.75;1.77;;;15.50;99.90;;;;;;5033970;28;20033;-82
2023/05/13 10:07:34;;;;;;;2.70;1.80;;;15.50;99.90;;;;;;5033963;28;20072;-76
2023/05/13 10:10:03;;;;;;;3.60;1.20;;;15.60;99.90;;;;;;5033610;28;20036;-78
2023/05/13 10:12:32;;;;;;;2.63;1.70;;;15.60;99.90;;;;;;5033874;28;20037;-76
2023/05/13 10:15:00;;;;;;;2.95;2.22;;;15.60;99.90;;;;;;5033787;28;20068;-79
2023/05/13 10:17:26;;;;;;;3.85;1.80;;;15.70;99.90;;;;;;5033329;28;20099;-81
2023/05/13 10:19:53;;;;;;;2.72;1.67;;;15.80;99.90;;;;;;5033619;28;20033;-81
2023/05/13 10:22:30;;;;;;;3.58;1.55;;;15.80;99.90;;;;;;5033720;28;20065;-78
2023/05/13 10:24:57;;;;;;;5.15;1.50;;;15.80;99.90;;;;;;5033548;28;20147;-81
2023/05/13 10:27:28;;;;;;;3.45;1.30;;;15.80;99.90;;;;;;5033211;28;20049;-80
2023/05/13 10:29:56;;;;;;;5.30;1.58;;;15.90;99.90;;;;;;5034294;28;20030;-80
2023/05/13 10:32:29;;;;;;;2.75;1.85;;;15.90;99.90;;;;;;5034096;28;20571;-75
2023/05/13 10:35:10;;;;;;;3.13;1.85;;;15.90;99.90;;;;;;5012011;28;20034;-75
2023/05/13 10:38:29;;;;;;;3.15;1.80;;;15.90;99.90;;;;;;5034251;28;20049;-83
2023/05/13 10:41:03;;;;;;;4.95;2.00;;;16.00;99.90;;;;;;4877462;29;20033;-83
2023/05/13 10:43:42;;;;;;;3.03;1.63;;;16.20;99.90;;;;;;4878330;29;20040;-79
2023/05/13 10:52:58;;;;;;;1.67;1.30;;;16.80;99.90;;;;;;4858719;29;20549;-82
2023/05/13 10:56:26;;;;;;;2.22;1.10;;;17.00;99.90;;;;;;4858671;29;20512;-81
2023/05/13 10:59:32;;;;;;;;;;;;;;;;;;;;;
2023/05/13 11:02:23;;;;;;;3.10;1.10;;;17.50;99.90;;;;;;4917343;29;20429;-81
2023/05/13 11:05:35;;;;;;;1.48;0.95;;;17.60;99.90;;;;;;5032589;28;20029;-81
2023/05/13 11:08:05;;;;;;;1.70;1.10;;;17.80;99.90;;;;;;5030335;28;20395;-81
2023/05/13 11:10:35;;;;;;;2.00;1.00;;;17.90;99.90;;;;;;5029994;28;20034;-82
2023/05/13 11:13:14;;;;;;;2.85;0.90;;;18.00;99.90;;;;;;5030535;28;20041;-79
2023/05/13 11:15:49;;;;;;;0.93;0.80;;;18.10;99.90;;;;;;5030079;28;20042;-81
2023/05/13 11:18:15;;;;;;;2.08;1.00;;;18.40;99.60;;;;;;5031253;28;20095;-83
2023/05/13 11:20:45;;;;;;;2.17;0.82;;;18.50;99.20;;;;;;5033080;28;20391;-82
2023/05/13 11:23:16;;;;;;;1.25;0.98;;;18.60;98.90;;;;;;5032569;28;20113;-83
2023/05/13 11:25:43;;;;;;;1.65;0.90;;;18.70;98.60;;;;;;5032335;28;20034;-82
2023/05/13 11:28:14;;;;;;;2.20;1.42;;;18.60;98.30;;;;;;5032199;28;20088;-82
2023/05/13 11:30:51;;;;;;;1.20;0.70;;;18.60;98.10;;;;;;5032435;28;20034;-82
2023/05/13 11:33:17;;;;;;;3.88;0.80;;;18.60;97.60;;;;;;5032623;28;20461;-82
2023/05/13 11:35:53;;;;;;;1.80;1.00;;;18.60;96.50;;;;;;5031858;28;20087;-82
2023/05/13 11:38:23;;;;;;;1.38;1.00;;;18.60;97.50;;;;;;5030715;28;20086;-81
2023/05/13 11:40:51;;;;;;;1.60;0.80;;;18.50;97.90;;;;;;5029907;28;20493;-81
2023/05/13 11:43:20;;;;;;;2.83;0.90;;;18.40;97.70;;;;;;5029616;28;20494;-82
2023/05/13 11:45:47;;;;;;;2.95;0.80;;;18.40;97.50;;;;;;5013445;28;20395;-80
2023/05/13 11:48:23;;;;;;;2.90;0.90;;;18.30;96.50;;;;;;5032030;28;20029;-81
2023/05/13 11:50:50;;;;;;;4.28;1.17;;;18.20;95.70;;;;;;5032882;28;20387;-82
2023/05/13 11:53:22;;;;;;;2.85;1.27;;;18.00;95.60;;;;;;5031694;28;20061;-81
2023/05/13 11:55:48;;;;;;;1.33;0.80;;;17.90;95.80;;;;;;5031791;28;20368;-81
2023/05/13 11:58:15;;;;;;;1.67;0.90;;;17.80;94.70;;;;;;5032174;28;20041;-80
2023/05/13 12:00:40;;;;;;;2.08;1.10;;;17.60;95.10;;;;;;5031919;28;20030;-81
2023/05/13 12:03:11;;;;;;;1.73;0.98;;;17.50;96.00;;;;;;5014398;28;20025;-81
2023/05/13 12:05:38;;;;;;;1.35;1.02;;;17.40;96.30;;;;;;5032425;28;20041;-81
2023/05/13 12:08:08;;;;;;;4.07;0.98;;;17.20;96.90;;;;;;5031719;28;20049;-80
2023/05/13 12:10:34;;;;;;;1.80;1.08;;;17.30;97.00;;;;;;5014429;28;20076;-81
2023/05/13 12:13:01;;;;;;;7.22;1.42;;;17.10;96.80;;;;;;5032904;28;20068;-79
2023/05/13 12:15:27;;;;;;;3.42;1.02;;;17.10;96.90;;;;;;5032055;28;20037;-78
2023/05/13 12:17:53;;;;;;;2.60;0.93;;;17.00;96.80;;;;;;5031790;28;20120;-79
2023/05/13 12:20:24;;;;;;;3.40;0.90;;;17.00;97.00;;;;;;5014589;28;20056;-80
2023/05/13 12:22:51;;;;;;;5.75;0.70;;;17.00;97.40;;;;;;5032103;28;20037;-79
2023/05/13 12:26:16;;;;;;;1.75;1.10;;;17.00;96.60;;;;;;5033000;28;20033;-79
2023/05/13 12:28:42;;;;;;;2.53;0.60;;;16.80;96.30;;;;;;4873220;29;20480;-79
2023/05/13 12:38:37;;;;;;;6.57;0.60;;;16.50;96.40;;;;;;4878710;29;20041;-79
2023/05/13 12:47:55;;;;;;;3.05;0.90;;;16.40;97.40;;;;;;4900956;28;20084;-78
2023/05/13 12:50:24;;;;;;;3.53;1.00;;;16.40;98.30;;;;;;5013442;28;20037;-78
2023/05/13 12:53:27;;;;;;;;;;;;;;;;;;;;;
2023/05/13 12:55:54;;;;;;;3.00;0.80;;;16.40;97.90;;;;;;4989475;28;20030;-79
2023/05/13 12:58:20;;;;;;;1.77;1.00;;;16.60;98.60;;;;;;5025577;28;20037;-78
2023/05/13 13:00:46;;;;;;;8.73;1.80;;;16.70;97.70;;;;;;5054694;28;20037;-79
2023/05/13 13:03:11;;;;;;;2.92;1.00;;;16.80;97.90;;;;;;5037097;28;20033;-79
2023/05/13 13:05:37;;;;;;;4.13;0.90;;;17.00;98.00;;;;;;5054500;28;20049;-79
2023/05/13 13:08:06;;;;;;;3.90;0.70;;;17.10;97.80;;;;;;5054206;28;20033;-80
2023/05/13 13:10:32;;;;;;;3.50;0.85;;;17.20;96.20;;;;;;5054751;28;20376;-79
2023/05/13 13:12:58;;;;;;;2.50;0.70;;;17.20;96.20;;;;;;5054469;28;20115;-74
2023/05/13 13:15:24;;;;;;;2.78;0.80;;;17.40;96.60;;;;;;5053925;28;20120;-73
2023/05/13 13:17:50;;;;;;;1.88;0.57;;;17.40;96.40;;;;;;5052806;28;20128;-74
2023/05/13 13:20:16;;;;;;;1.17;0.60;;;17.50;96.50;;;;;;5053042;28;20071;-74
2023/05/13 13:22:41;;;;;;;4.40;0.75;;;17.50;96.90;;;;;;5052734;28;20036;-74
2023/05/13 13:25:07;;;;;;;5.43;0.73;;;17.60;96.90;;;;;;5053254;28;20040;-73
2023/05/13 13:27:34;;;;;;;2.08;0.80;;;17.70;97.20;;;;;;5054353;28;20059;-73
2023/05/13 13:30:02;;;;;;;2.55;0.93;;;17.90;97.50;;;;;;5053802;28;20549;-73
2023/05/13 13:32:27;;;;;;;5.75;0.93;;;18.00;97.80;;;;;;5054431;28;20391;-73
2023/05/13 13:34:53;;;;;;;1.63;0.50;;;18.10;97.10;;;;;;5054792;28;20033;-73
2023/05/13 13:37:19;;;;;;;4.35;0.70;;;18.20;95.70;;;;;;5054133;28;20037;-73
2023/05/13 13:39:45;;;;;;;2.22;0.70;;;18.20;95.50;;;;;;5054480;28;20033;-73
2023/05/13 13:42:10;;;;;;;5.03;0.70;;;18.20;95.30;;;;;;5054699;28;20025;-73
2023/05/13 13:44:38;;;;;;;2.20;0.70;;;18.20;95.60;;;;;;5054175;28;20048;-73
2023/05/13 13:47:04;;;;;;;1.73;0.60;;;18.20;95.80;;;;;;5054031;28;20064;-73
2023/05/13 13:49:30;;;;;;;1.30;0.70;;;18.10;94.20;;;;;;5054481;28;20029;-73
2023/05/13 13:51:55;;;;;;;4.57;0.40;;;18.00;94.40;;;;;;5054262;28;20057;-73
2023/05/13 13:54:22;;;;;;;4.32;0.40;;;17.90;94.20;;;;;;5053859;28;20029;-73
2023/05/13 13:56:47;;;;;;;1.75;0.70;;;17.90;94.20;;;;;;5054001;28;20095;-73
2023/05/13 13:59:13;;;;;;;2.50;0.50;;;17.90;94.50;;;;;;5054067;28;20029;-72
2023/05/13 14:01:39;;;;;;;2.47;0.50;;;17.90;93.50;;;;;;5054385;28;20039;-73
2023/05/13 14:04:14;;;;;;;1.08;0.77;;;17.80;93.70;;;;;;5054760;28;20414;-74
2023/05/13 14:06:41;;;;;;;3.72;0.68;;;17.80;93.30;;;;;;5054615;28;20032;-74
2023/05/13 14:09:09;;;;;;;4.60;0.80;;;17.80;92.40;;;;;;5054156;28;20083;-74
2023/05/13 14:12:25;;;;;;;0.80;0.50;;;17.80;92.40;;;;;;5054383;28;20429;-74
2023/05/13 14:15:00;;;;;;;1.25;0.55;;;17.80;92.50;;;;;;5011331;28;20037;-74
2023/05/13 14:17:51;;;;;;;1.30;0.50;;;17.80;92.60;;;;;;5012367;28;20117;-74
2023/05/13 14:20:23;;;;;;;1.13;0.45;;;17.80;92.90;;;;;;5012320;28;20029;-75
2023/05/13 14:23:01;;;;;;;2.00;0.60;;;17.80;92.90;;;;;;5011794;28;20511;-74
2023/05/13 14:25:39;;;;;;;2.15;0.43;;;17.80;92.70;;;;;;4994753;28;20045;-73
2023/05/13 14:31:20;;;;;;;2.97;0.35;;;17.90;92.60;;;;;;4971437;28;20044;-72
2023/05/13 14:33:45;;;;;;;2.85;0.60;;;18.00;92.80;;;;;;4972327;28;20365;-75
2023/05/13 14:36:19;;;;;;;4.13;0.80;;;18.00;93.20;;;;;;4985455;28;20038;-74
2023/05/13 14:38:54;;;;;;;1.00;0.63;;;18.10;92.40;;;;;;4991454;28;20030;-73
2023/05/13 14:41:24;;;;;;;1.30;0.50;;;18.20;91.60;;;;;;4991565;28;20069;-74
2023/05/13 14:43:50;;;;;;;4.10;0.60;;;18.30;91.30;;;;;;4991891;28;20030;-74
2023/05/13 14:46:16;;;;;;;1.02;0.50;;;18.40;90.60;;;;;;5028542;28;20675;-74
2023/05/13 14:48:42;;;;;;;1.33;0.50;;;18.50;90.80;;;;;;5012716;28;20092;-73
2023/05/13 14:51:09;;;;;;;2.25;0.50;;;18.50;90.20;;;;;;5013645;28;20415;-73
2023/05/13 14:53:35;;;;;;;2.05;0.47;;;18.60;89.80;;;;;;5011586;28;20517;-75
2023/05/13 14:56:01;;;;;;;1.13;0.40;;;18.70;86.60;;;;;;5010211;28;20033;-74
2023/05/13 14:58:27;;;;;;;1.30;0.57;;;18.80;85.60;;;;;;5008852;28;20524;-75
2023/05/13 15:00:53;;;;;;;2.17;0.85;;;18.80;86.40;;;;;;5011631;28;20058;-75
2023/05/13 15:03:19;;;;;;;1.67;0.50;;;18.80;85.00;;;;;;5010589;28;20416;-74
2023/05/13 15:05:45;;;;;;;2.25;0.52;;;18.90;85.90;;;;;;5013379;28;20033;-75
2023/05/13 15:08:11;;;;;;;2.28;0.40;;;18.90;84.70;;;;;;5013404;28;20626;-75
2023/05/13 15:10:37;;;;;;;2.85;0.57;;;19.00;84.10;;;;;;5013324;28;20133;-75